sensor_id;sensor_type;location;lat;lon;timestamp;P1;durP1;ratioP1;P2;durP2;ratioP2
22841;SDS011;11587;47.064;15.444;2023-08-08T00:00:20;0.20;;;0.20;;
22841;SDS011;11587;47.064;15.444;2023-08-08T00:02:46;0.20;;;0.20;;
22841;SDS011;11587;47.064;15.444;2023-08-08T00:05:12;0.20;;;0.20;;
22841;SDS011;11587;47.064;15.444;2023-08-08T00:07:38;0.10;;;0.10;;
22841;SDS011;11587;47.064;15.444;2023-08-08T00:10:04;0.10;;;0.10;;
22841;SDS011;11587;47.064;15.444;2023-08-08T00:12:30;0.10;;;0.10;;
22841;SDS011;11587;47.064;15.444;2023-08-08T00:14:56;0.10;;;0.10;;
22841;SDS011;11587;47.064;15.444;2023-08-08T00:17:22;0.10;;;0.10;;
22841;SDS011;11587;47.064;15.444;2023-08-08T00:19:48;0.10;;;0.10;;
22841;SDS011;11587;47.064;15.444;2023-08-08T00:22:14;0.20;;;0.20;;
22841;SDS011;11587;47.064;15.444;2023-08-08T00:24:40;0.10;;;0.10;;
22841;SDS011;11587;47.064;15.444;2023-08-08T00:27:06;0.10;;;0.10;;
22841;SDS011;11587;47.064;15.444;2023-08-08T00:29:32;0.10;;;0.10;;
22841;SDS011;11587;47.064;15.444;2023-08-08T00:31:58;0.10;;;0.10;;
22841;SDS011;11587;47.064;15.444;2023-08-08T00:34:24;0.17;;;0.17;;
22841;SDS011;11587;47.064;15.444;2023-08-08T00:36:50;0.13;;;0.13;;
22841;SDS011;11587;47.064;15.444;2023-08-08T00:39:16;0.10;;;0.10;;
22841;SDS011;11587;47.064;15.444;2023-08-08T00:41:42;0.10;;;0.10;;
22841;SDS011;11587;47.064;15.444;2023-08-08T00:44:09;0.20;;;0.20;;
22841;SDS011;11587;47.064;15.444;2023-08-08T00:46:35;0.20;;;0.20;;
22841;SDS011;11587;47.064;15.444;2023-08-08T00:49:01;0.20;;;0.20;;
22841;SDS011;11587;47.064;15.444;2023-08-08T00:51:27;0.10;;;0.10;;
22841;SDS011;11587;47.064;15.444;2023-08-08T00:53:54;0.20;;;0.20;;
22841;SDS011;11587;47.064;15.444;2023-08-08T00:56:20;0.10;;;0.10;;
22841;SDS011;11587;47.064;15.444;2023-08-08T00:58:46;0.10;;;0.10;;
22841;SDS011;11587;47.064;15.444;2023-08-08T01:01:15;0.10;;;0.10;;
22841;SDS011;11587;47.064;15.444;2023-08-08T01:03:41;0.10;;;0.10;;
22841;SDS011;11587;47.064;15.444;2023-08-08T01:08:35;0.10;;;0.10;;
22841;SDS011;11587;47.064;15.444;2023-08-08T01:11:03;0.20;;;0.20;;
22841;SDS011;11587;47.064;15.444;2023-08-08T01:13:29;0.20;;;0.20;;
22841;SDS011;11587;47.064;15.444;2023-08-08T01:15:56;0.20;;;0.20;;
22841;SDS011;11587;47.064;15.444;2023-08-08T01:18:23;0.20;;;0.20;;
22841;SDS011;11587;47.064;15.444;2023-08-08T01:20:50;0.20;;;0.20;;
22841;SDS011;11587;47.064;15.444;2023-08-08T01:23:19;0.20;;;0.20;;
22841;SDS011;11587;47.064;15.444;2023-08-08T01:25:45;0.20;;;0.20;;
22841;SDS011;11587;47.064;15.444;2023-08-08T01:28:12;0.20;;;0.20;;
22841;SDS011;11587;47.064;15.444;2023-08-08T01:30:38;0.20;;;0.20;;
22841;SDS011;11587;47.064;15.444;2023-08-08T01:33:04;0.20;;;0.20;;
22841;SDS011;11587;47.064;15.444;2023-08-08T01:35:33;0.20;;;0.20;;
22841;SDS011;11587;47.064;15.444;2023-08-08T01:38:11;0.20;;;0.20;;
22841;SDS011;11587;47.064;15.444;2023-08-08T01:40:38;0.20;;;0.20;;
22841;SDS011;11587;47.064;15.444;2023-08-08T01:43:06;0.20;;;0.20;;
22841;SDS011;11587;47.064;15.444;2023-08-08T01:45:32;0.20;;;0.20;;
22841;SDS011;11587;47.064;15.444;2023-08-08T01:47:58;0.20;;;0.20;;
22841;SDS011;11587;47.064;15.444;2023-08-08T01:50:24;0.20;;;0.20;;
22841;SDS011;11587;47.064;15.444;2023-08-08T01:52:50;0.20;;;0.20;;
22841;SDS011;11587;47.064;15.444;2023-08-08T01:55:16;0.20;;;0.20;;
22841;SDS011;11587;47.064;15.444;2023-08-08T01:57:42;0.20;;;0.20;;
22841;SDS011;11587;47.064;15.444;2023-08-08T02:00:08;0.20;;;0.20;;
22841;SDS011;11587;47.064;15.444;2023-08-08T02:02:35;0.20;;;0.20;;
22841;SDS011;11587;47.064;15.444;2023-08-08T02:05:01;0.20;;;0.20;;
22841;SDS011;11587;47.064;15.444;2023-08-08T02:07:27;0.20;;;0.20;;
22841;SDS011;11587;47.064;15.444;2023-08-08T02:09:53;0.20;;;0.20;;
22841;SDS011;11587;47.064;15.444;2023-08-08T02:12:20;0.20;;;0.20;;
22841;SDS011;11587;47.064;15.444;2023-08-08T02:14:46;0.20;;;0.20;;
22841;SDS011;11587;47.064;15.444;2023-08-08T02:17:12;0.20;;;0.20;;
22841;SDS011;11587;47.064;15.444;2023-08-08T02:19:38;0.30;;;0.30;;
22841;SDS011;11587;47.064;15.444;2023-08-08T02:22:04;0.20;;;0.20;;
22841;SDS011;11587;47.064;15.444;2023-08-08T02:24:30;0.10;;;0.10;;
22841;SDS011;11587;47.064;15.444;2023-08-08T02:26:56;0.10;;;0.10;;
22841;SDS011;11587;47.064;15.444;2023-08-08T02:29:22;0.10;;;0.10;;
22841;SDS011;11587;47.064;15.444;2023-08-08T02:31:48;0.10;;;0.10;;
22841;SDS011;11587;47.064;15.444;2023-08-08T02:34:14;0.10;;;0.10;;
22841;SDS011;11587;47.064;15.444;2023-08-08T02:36:40;0.10;;;0.10;;
22841;SDS011;11587;47.064;15.444;2023-08-08T02:39:06;0.20;;;0.20;;
22841;SDS011;11587;47.064;15.444;2023-08-08T02:41:32;0.10;;;0.10;;
22841;SDS011;11587;47.064;15.444;2023-08-08T02:43:58;0.15;;;0.15;;
22841;SDS011;11587;47.064;15.444;2023-08-08T02:46:24;0.10;;;0.10;;
22841;SDS011;11587;47.064;15.444;2023-08-08T02:48:50;0.20;;;0.20;;
22841;SDS011;11587;47.064;15.444;2023-08-08T02:51:16;0.20;;;0.20;;
22841;SDS011;11587;47.064;15.444;2023-08-08T02:53:42;0.10;;;0.10;;
22841;SDS011;11587;47.064;15.444;2023-08-08T02:56:08;0.20;;;0.20;;
22841;SDS011;11587;47.064;15.444;2023-08-08T02:58:34;0.20;;;0.20;;
22841;SDS011;11587;47.064;15.444;2023-08-08T03:01:00;0.10;;;0.10;;
22841;SDS011;11587;47.064;15.444;2023-08-08T03:03:26;0.10;;;0.10;;
22841;SDS011;11587;47.064;15.444;2023-08-08T03:05:53;0.10;;;0.10;;
22841;SDS011;11587;47.064;15.444;2023-08-08T03:08:19;0.17;;;0.17;;
22841;SDS011;11587;47.064;15.444;2023-08-08T03:10:45;0.10;;;0.10;;
22841;SDS011;11587;47.064;15.444;2023-08-08T03:13:11;0.10;;;0.10;;
22841;SDS011;11587;47.064;15.444;2023-08-08T03:15:37;0.20;;;0.20;;
22841;SDS011;11587;47.064;15.444;2023-08-08T03:18:03;0.20;;;0.20;;
22841;SDS011;11587;47.064;15.444;2023-08-08T03:20:29;0.10;;;0.10;;
22841;SDS011;11587;47.064;15.444;2023-08-08T03:22:55;0.20;;;0.20;;
22841;SDS011;11587;47.064;15.444;2023-08-08T03:25:21;0.10;;;0.10;;
22841;SDS011;11587;47.064;15.444;2023-08-08T03:27:47;0.10;;;0.10;;
22841;SDS011;11587;47.064;15.444;2023-08-08T03:30:13;0.10;;;0.10;;
22841;SDS011;11587;47.064;15.444;2023-08-08T03:32:39;0.17;;;0.17;;
22841;SDS011;11587;47.064;15.444;2023-08-08T03:35:05;0.20;;;0.20;;
22841;SDS011;11587;47.064;15.444;2023-08-08T03:37:31;0.10;;;0.10;;
22841;SDS011;11587;47.064;15.444;2023-08-08T03:39:57;0.20;;;0.20;;
22841;SDS011;11587;47.064;15.444;2023-08-08T03:42:23;0.10;;;0.10;;
22841;SDS011;11587;47.064;15.444;2023-08-08T03:44:49;0.10;;;0.10;;
22841;SDS011;11587;47.064;15.444;2023-08-08T03:47:15;0.20;;;0.20;;
22841;SDS011;11587;47.064;15.444;2023-08-08T03:49:41;0.15;;;0.15;;
22841;SDS011;11587;47.064;15.444;2023-08-08T03:52:07;0.10;;;0.10;;
22841;SDS011;11587;47.064;15.444;2023-08-08T03:54:33;0.20;;;0.20;;
22841;SDS011;11587;47.064;15.444;2023-08-08T03:56:59;0.10;;;0.10;;
22841;SDS011;11587;47.064;15.444;2023-08-08T03:59:26;0.15;;;0.15;;
22841;SDS011;11587;47.064;15.444;2023-08-08T04:01:52;0.20;;;0.20;;
22841;SDS011;11587;47.064;15.444;2023-08-08T04:04:18;0.10;;;0.10;;
22841;SDS011;11587;47.064;15.444;2023-08-08T04:06:44;0.10;;;0.10;;
22841;SDS011;11587;47.064;15.444;2023-08-08T04:09:10;0.20;;;0.20;;
22841;SDS011;11587;47.064;15.444;2023-08-08T04:11:36;0.10;;;0.10;;
22841;SDS011;11587;47.064;15.444;2023-08-08T04:14:02;0.10;;;0.10;;
22841;SDS011;11587;47.064;15.444;2023-08-08T04:16:28;0.10;;;0.10;;
22841;SDS011;11587;47.064;15.444;2023-08-08T04:18:54;0.20;;;0.20;;
22841;SDS011;11587;47.064;15.444;2023-08-08T04:21:20;0.10;;;0.10;;
22841;SDS011;11587;47.064;15.444;2023-08-08T04:23:46;0.10;;;0.10;;
22841;SDS011;11587;47.064;15.444;2023-08-08T04:26:12;0.10;;;0.10;;
22841;SDS011;11587;47.064;15.444;2023-08-08T04:28:39;0.20;;;0.20;;
22841;SDS011;11587;47.064;15.444;2023-08-08T04:31:05;0.10;;;0.10;;
22841;SDS011;11587;47.064;15.444;2023-08-08T04:33:31;0.10;;;0.10;;
22841;SDS011;11587;47.064;15.444;2023-08-08T04:35:57;0.20;;;0.20;;
22841;SDS011;11587;47.064;15.444;2023-08-08T04:38:24;0.10;;;0.10;;
22841;SDS011;11587;47.064;15.444;2023-08-08T04:40:50;0.10;;;0.10;;
22841;SDS011;11587;47.064;15.444;2023-08-08T04:43:16;0.20;;;0.20;;
22841;SDS011;11587;47.064;15.444;2023-08-08T04:45:42;0.10;;;0.10;;
22841;SDS011;11587;47.064;15.444;2023-08-08T04:48:08;0.10;;;0.10;;
22841;SDS011;11587;47.064;15.444;2023-08-08T04:50:33;0.20;;;0.20;;
22841;SDS011;11587;47.064;15.444;2023-08-08T04:52:59;0.20;;;0.20;;
22841;SDS011;11587;47.064;15.444;2023-08-08T04:55:25;0.20;;;0.20;;
22841;SDS011;11587;47.064;15.444;2023-08-08T04:57:51;0.10;;;0.10;;
22841;SDS011;11587;47.064;15.444;2023-08-08T05:00:17;0.10;;;0.10;;
22841;SDS011;11587;47.064;15.444;2023-08-08T05:02:43;0.10;;;0.10;;
22841;SDS011;11587;47.064;15.444;2023-08-08T05:05:09;0.30;;;0.30;;
22841;SDS011;11587;47.064;15.444;2023-08-08T05:07:35;0.20;;;0.20;;
22841;SDS011;11587;47.064;15.444;2023-08-08T05:10:02;0.20;;;0.20;;
22841;SDS011;11587;47.064;15.444;2023-08-08T05:12:29;0.25;;;0.25;;
22841;SDS011;11587;47.064;15.444;2023-08-08T05:14:55;0.20;;;0.20;;
22841;SDS011;11587;47.064;15.444;2023-08-08T05:17:21;0.20;;;0.20;;
22841;SDS011;11587;47.064;15.444;2023-08-08T05:19:47;0.20;;;0.20;;
22841;SDS011;11587;47.064;15.444;2023-08-08T05:22:13;0.20;;;0.20;;
22841;SDS011;11587;47.064;15.444;2023-08-08T05:24:39;0.20;;;0.20;;
22841;SDS011;11587;47.064;15.444;2023-08-08T05:27:05;0.20;;;0.20;;
22841;SDS011;11587;47.064;15.444;2023-08-08T05:29:31;0.20;;;0.20;;
22841;SDS011;11587;47.064;15.444;2023-08-08T05:31:57;0.20;;;0.20;;
22841;SDS011;11587;47.064;15.444;2023-08-08T05:34:23;0.20;;;0.20;;
22841;SDS011;11587;47.064;15.444;2023-08-08T05:36:49;0.20;;;0.20;;
22841;SDS011;11587;47.064;15.444;2023-08-08T05:39:15;0.20;;;0.20;;
22841;SDS011;11587;47.064;15.444;2023-08-08T05:41:41;0.20;;;0.20;;
22841;SDS011;11587;47.064;15.444;2023-08-08T05:44:07;0.20;;;0.20;;
22841;SDS011;11587;47.064;15.444;2023-08-08T05:46:33;0.20;;;0.20;;
22841;SDS011;11587;47.064;15.444;2023-08-08T05:48:59;0.20;;;0.20;;
22841;SDS011;11587;47.064;15.444;2023-08-08T05:51:26;0.30;;;0.30;;
22841;SDS011;11587;47.064;15.444;2023-08-08T05:53:52;0.20;;;0.20;;
22841;SDS011;11587;47.064;15.444;2023-08-08T05:56:18;0.20;;;0.20;;
22841;SDS011;11587;47.064;15.444;2023-08-08T05:58:44;0.20;;;0.20;;
22841;SDS011;11587;47.064;15.444;2023-08-08T06:01:10;0.22;;;0.22;;
22841;SDS011;11587;47.064;15.444;2023-08-08T06:03:37;0.20;;;0.20;;
22841;SDS011;11587;47.064;15.444;2023-08-08T06:06:03;0.20;;;0.20;;
22841;SDS011;11587;47.064;15.444;2023-08-08T06:08:29;0.10;;;0.10;;
22841;SDS011;11587;47.064;15.444;2023-08-08T06:10:56;0.20;;;0.20;;
22841;SDS011;11587;47.064;15.444;2023-08-08T06:13:22;0.10;;;0.10;;
22841;SDS011;11587;47.064;15.444;2023-08-08T06:15:48;0.10;;;0.10;;
22841;SDS011;11587;47.064;15.444;2023-08-08T06:18:15;0.10;;;0.10;;
22841;SDS011;11587;47.064;15.444;2023-08-08T06:20:41;0.10;;;0.10;;
22841;SDS011;11587;47.064;15.444;2023-08-08T06:23:07;0.10;;;0.10;;
22841;SDS011;11587;47.064;15.444;2023-08-08T06:25:33;0.10;;;0.10;;
22841;SDS011;11587;47.064;15.444;2023-08-08T06:27:59;0.10;;;0.10;;
22841;SDS011;11587;47.064;15.444;2023-08-08T06:30:25;0.10;;;0.10;;
22841;SDS011;11587;47.064;15.444;2023-08-08T06:32:51;0.10;;;0.10;;
22841;SDS011;11587;47.064;15.444;2023-08-08T06:35:17;0.10;;;0.10;;
22841;SDS011;11587;47.064;15.444;2023-08-08T06:37:43;0.10;;;0.10;;
22841;SDS011;11587;47.064;15.444;2023-08-08T06:40:09;0.10;;;0.10;;
22841;SDS011;11587;47.064;15.444;2023-08-08T06:42:36;0.10;;;0.10;;
22841;SDS011;11587;47.064;15.444;2023-08-08T06:45:02;0.10;;;0.10;;
22841;SDS011;11587;47.064;15.444;2023-08-08T06:47:28;0.10;;;0.10;;
22841;SDS011;11587;47.064;15.444;2023-08-08T06:49:54;0.10;;;0.10;;
22841;SDS011;11587;47.064;15.444;2023-08-08T06:52:21;0.10;;;0.10;;
22841;SDS011;11587;47.064;15.444;2023-08-08T06:54:47;0.10;;;0.10;;
22841;SDS011;11587;47.064;15.444;2023-08-08T06:57:13;0.10;;;0.10;;
22841;SDS011;11587;47.064;15.444;2023-08-08T06:59:39;0.10;;;0.10;;
22841;SDS011;11587;47.064;15.444;2023-08-08T07:02:06;0.10;;;0.10;;
22841;SDS011;11587;47.064;15.444;2023-08-08T07:04:32;0.10;;;0.10;;
22841;SDS011;11587;47.064;15.444;2023-08-08T07:06:58;0.10;;;0.10;;
22841;SDS011;11587;47.064;15.444;2023-08-08T07:09:24;0.10;;;0.10;;
22841;SDS011;11587;47.064;15.444;2023-08-08T07:11:50;0.10;;;0.10;;
22841;SDS011;11587;47.064;15.444;2023-08-08T07:14:16;0.10;;;0.10;;
22841;SDS011;11587;47.064;15.444;2023-08-08T07:16:42;0.10;;;0.10;;
22841;SDS011;11587;47.064;15.444;2023-08-08T07:19:08;0.10;;;0.10;;
22841;SDS011;11587;47.064;15.444;2023-08-08T07:21:34;0.10;;;0.10;;
22841;SDS011;11587;47.064;15.444;2023-08-08T07:24:00;0.10;;;0.10;;
22841;SDS011;11587;47.064;15.444;2023-08-08T07:26:28;0.10;;;0.10;;
22841;SDS011;11587;47.064;15.444;2023-08-08T07:28:53;0.10;;;0.10;;
22841;SDS011;11587;47.064;15.444;2023-08-08T07:31:19;0.10;;;0.10;;
22841;SDS011;11587;47.064;15.444;2023-08-08T07:33:45;0.10;;;0.10;;
22841;SDS011;11587;47.064;15.444;2023-08-08T07:36:11;0.10;;;0.10;;
22841;SDS011;11587;47.064;15.444;2023-08-08T07:38:37;0.10;;;0.10;;
22841;SDS011;11587;47.064;15.444;2023-08-08T07:41:03;0.10;;;0.10;;
22841;SDS011;11587;47.064;15.444;2023-08-08T07:43:30;0.10;;;0.10;;
22841;SDS011;11587;47.064;15.444;2023-08-08T07:45:56;0.10;;;0.10;;
22841;SDS011;11587;47.064;15.444;2023-08-08T07:48:21;0.10;;;0.10;;
22841;SDS011;11587;47.064;15.444;2023-08-08T07:50:47;0.10;;;0.10;;
22841;SDS011;11587;47.064;15.444;2023-08-08T07:53:13;0.10;;;0.10;;
22841;SDS011;11587;47.064;15.444;2023-08-08T07:55:39;0.10;;;0.10;;
22841;SDS011;11587;47.064;15.444;2023-08-08T07:58:05;0.10;;;0.10;;
22841;SDS011;11587;47.064;15.444;2023-08-08T08:00:31;0.10;;;0.10;;
22841;SDS011;11587;47.064;15.444;2023-08-08T08:02:58;0.10;;;0.10;;
22841;SDS011;11587;47.064;15.444;2023-08-08T08:05:25;0.10;;;0.10;;
22841;SDS011;11587;47.064;15.444;2023-08-08T08:07:51;0.10;;;0.10;;
22841;SDS011;11587;47.064;15.444;2023-08-08T08:10:17;0.10;;;0.10;;
22841;SDS011;11587;47.064;15.444;2023-08-08T08:12:43;0.10;;;0.10;;
22841;SDS011;11587;47.064;15.444;2023-08-08T08:15:09;0.10;;;0.10;;
22841;SDS011;11587;47.064;15.444;2023-08-08T08:17:35;0.10;;;0.10;;
22841;SDS011;11587;47.064;15.444;2023-08-08T08:20:02;0.10;;;0.10;;
22841;SDS011;11587;47.064;15.444;2023-08-08T08:22:31;0.10;;;0.10;;
22841;SDS011;11587;47.064;15.444;2023-08-08T08:24:57;0.10;;;0.10;;
22841;SDS011;11587;47.064;15.444;2023-08-08T08:27:23;0.10;;;0.10;;
22841;SDS011;11587;47.064;15.444;2023-08-08T08:29:48;0.10;;;0.10;;
22841;SDS011;11587;47.064;15.444;2023-08-08T08:32:14;0.10;;;0.10;;
22841;SDS011;11587;47.064;15.444;2023-08-08T08:34:40;0.10;;;0.10;;
22841;SDS011;11587;47.064;15.444;2023-08-08T08:37:07;0.10;;;0.10;;
22841;SDS011;11587;47.064;15.444;2023-08-08T08:39:33;0.10;;;0.10;;
22841;SDS011;11587;47.064;15.444;2023-08-08T08:41:59;0.03;;;0.03;;
22841;SDS011;11587;47.064;15.444;2023-08-08T08:44:28;0.10;;;0.10;;
22841;SDS011;11587;47.064;15.444;2023-08-08T08:46:57;0.10;;;0.10;;
22841;SDS011;11587;47.064;15.444;2023-08-08T08:49:25;0.10;;;0.10;;
22841;SDS011;11587;47.064;15.444;2023-08-08T08:51:54;0.10;;;0.10;;
22841;SDS011;11587;47.064;15.444;2023-08-08T08:54:21;0.10;;;0.10;;
22841;SDS011;11587;47.064;15.444;2023-08-08T08:56:47;0.10;;;0.10;;
22841;SDS011;11587;47.064;15.444;2023-08-08T08:59:13;0.20;;;0.20;;
22841;SDS011;11587;47.064;15.444;2023-08-08T09:01:39;0.10;;;0.10;;
22841;SDS011;11587;47.064;15.444;2023-08-08T09:04:05;0.10;;;0.10;;
22841;SDS011;11587;47.064;15.444;2023-08-08T09:06:33;0.20;;;0.20;;
22841;SDS011;11587;47.064;15.444;2023-08-08T09:08:59;0.10;;;0.10;;
22841;SDS011;11587;47.064;15.444;2023-08-08T09:11:25;0.10;;;0.10;;
22841;SDS011;11587;47.064;15.444;2023-08-08T09:13:51;0.10;;;0.10;;
22841;SDS011;11587;47.064;15.444;2023-08-08T09:16:17;0.10;;;0.10;;
22841;SDS011;11587;47.064;15.444;2023-08-08T09:18:43;0.10;;;0.10;;
22841;SDS011;11587;47.064;15.444;2023-08-08T09:21:09;0.10;;;0.10;;
22841;SDS011;11587;47.064;15.444;2023-08-08T09:23:36;0.10;;;0.10;;
22841;SDS011;11587;47.064;15.444;2023-08-08T09:26:03;0.10;;;0.10;;
22841;SDS011;11587;47.064;15.444;2023-08-08T09:28:30;0.10;;;0.10;;
22841;SDS011;11587;47.064;15.444;2023-08-08T09:30:56;0.10;;;0.10;;
22841;SDS011;11587;47.064;15.444;2023-08-08T09:33:23;0.10;;;0.10;;
22841;SDS011;11587;47.064;15.444;2023-08-08T09:35:49;0.10;;;0.10;;
22841;SDS011;11587;47.064;15.444;2023-08-08T09:38:15;0.10;;;0.10;;
22841;SDS011;11587;47.064;15.444;2023-08-08T09:40:41;0.10;;;0.10;;
22841;SDS011;11587;47.064;15.444;2023-08-08T09:43:08;0.10;;;0.10;;
22841;SDS011;11587;47.064;15.444;2023-08-08T09:45:37;0.10;;;0.10;;
22841;SDS011;11587;47.064;15.444;2023-08-08T09:48:04;0.10;;;0.10;;
22841;SDS011;11587;47.064;15.444;2023-08-08T09:50:31;0.10;;;0.10;;
22841;SDS011;11587;47.064;15.444;2023-08-08T09:52:58;0.10;;;0.10;;
22841;SDS011;11587;47.064;15.444;2023-08-08T09:55:24;0.10;;;0.10;;
22841;SDS011;11587;47.064;15.444;2023-08-08T09:57:50;0.00;;;0.00;;
22841;SDS011;11587;47.064;15.444;2023-08-08T10:00:16;0.10;;;0.10;;
22841;SDS011;11587;47.064;15.444;2023-08-08T10:02:44;0.10;;;0.10;;
22841;SDS011;11587;47.064;15.444;2023-08-08T10:05:10;0.10;;;0.10;;
22841;SDS011;11587;47.064;15.444;2023-08-08T10:07:40;0.10;;;0.10;;
22841;SDS011;11587;47.064;15.444;2023-08-08T10:10:07;0.03;;;0.03;;
22841;SDS011;11587;47.064;15.444;2023-08-08T10:12:36;0.00;;;0.00;;
22841;SDS011;11587;47.064;15.444;2023-08-08T10:15:02;0.03;;;0.03;;
22841;SDS011;11587;47.064;15.444;2023-08-08T10:17:34;0.00;;;0.00;;
22841;SDS011;11587;47.064;15.444;2023-08-08T10:20:00;0.10;;;0.10;;
22841;SDS011;11587;47.064;15.444;2023-08-08T10:22:34;0.00;;;0.00;;
22841;SDS011;11587;47.064;15.444;2023-08-08T10:25:03;0.10;;;0.10;;
22841;SDS011;11587;47.064;15.444;2023-08-08T10:27:32;0.10;;;0.10;;
22841;SDS011;11587;47.064;15.444;2023-08-08T10:30:08;0.10;;;0.10;;
22841;SDS011;11587;47.064;15.444;2023-08-08T10:32:39;0.10;;;0.10;;
22841;SDS011;11587;47.064;15.444;2023-08-08T10:35:06;0.10;;;0.10;;
22841;SDS011;11587;47.064;15.444;2023-08-08T10:37:33;0.00;;;0.00;;
22841;SDS011;11587;47.064;15.444;2023-08-08T10:39:59;0.10;;;0.10;;
22841;SDS011;11587;47.064;15.444;2023-08-08T10:42:27;0.10;;;0.10;;
22841;SDS011;11587;47.064;15.444;2023-08-08T10:47:52;0.10;;;0.10;;
22841;SDS011;11587;47.064;15.444;2023-08-08T10:50:12;0.10;;;0.10;;
22841;SDS011;11587;47.064;15.444;2023-08-08T10:52:52;0.00;;;0.00;;
22841;SDS011;11587;47.064;15.444;2023-08-08T10:55:22;0.00;;;0.00;;
22841;SDS011;11587;47.064;15.444;2023-08-08T10:57:55;0.10;;;0.10;;
22841;SDS011;11587;47.064;15.444;2023-08-08T11:00:23;0.00;;;0.00;;
22841;SDS011;11587;47.064;15.444;2023-08-08T11:02:49;0.10;;;0.10;;
22841;SDS011;11587;47.064;15.444;2023-08-08T11:05:16;0.00;;;0.00;;
22841;SDS011;11587;47.064;15.444;2023-08-08T11:07:42;0.00;;;0.00;;
22841;SDS011;11587;47.064;15.444;2023-08-08T11:10:09;0.00;;;0.00;;
22841;SDS011;11587;47.064;15.444;2023-08-08T11:12:35;0.00;;;0.00;;
22841;SDS011;11587;47.064;15.444;2023-08-08T11:15:01;0.00;;;0.00;;
22841;SDS011;11587;47.064;15.444;2023-08-08T11:17:27;0.00;;;0.00;;
22841;SDS011;11587;47.064;15.444;2023-08-08T11:19:53;0.05;;;0.05;;
22841;SDS011;11587;47.064;15.444;2023-08-08T11:22:23;0.00;;;0.00;;
22841;SDS011;11587;47.064;15.444;2023-08-08T11:24:49;0.00;;;0.00;;
22841;SDS011;11587;47.064;15.444;2023-08-08T11:27:16;0.00;;;0.00;;
22841;SDS011;11587;47.064;15.444;2023-08-08T11:29:51;0.00;;;0.00;;
22841;SDS011;11587;47.064;15.444;2023-08-08T11:32:17;0.00;;;0.00;;
22841;SDS011;11587;47.064;15.444;2023-08-08T11:34:43;0.00;;;0.00;;
22841;SDS011;11587;47.064;15.444;2023-08-08T11:37:09;0.00;;;0.00;;
22841;SDS011;11587;47.064;15.444;2023-08-08T11:39:36;0.00;;;0.00;;
22841;SDS011;11587;47.064;15.444;2023-08-08T11:42:02;0.00;;;0.00;;
22841;SDS011;11587;47.064;15.444;2023-08-08T11:44:29;0.00;;;0.00;;
22841;SDS011;11587;47.064;15.444;2023-08-08T11:46:59;0.00;;;0.00;;
22841;SDS011;11587;47.064;15.444;2023-08-08T11:49:25;0.00;;;0.00;;
22841;SDS011;11587;47.064;15.444;2023-08-08T11:51:53;0.00;;;0.00;;
22841;SDS011;11587;47.064;15.444;2023-08-08T11:54:26;0.00;;;0.00;;
22841;SDS011;11587;47.064;15.444;2023-08-08T11:56:53;0.00;;;0.00;;
22841;SDS011;11587;47.064;15.444;2023-08-08T11:59:19;0.00;;;0.00;;
22841;SDS011;11587;47.064;15.444;2023-08-08T12:01:45;0.00;;;0.00;;
22841;SDS011;11587;47.064;15.444;2023-08-08T12:04:11;0.00;;;0.00;;
22841;SDS011;11587;47.064;15.444;2023-08-08T12:06:37;0.00;;;0.00;;
22841;SDS011;11587;47.064;15.444;2023-08-08T12:09:13;0.00;;;0.00;;
22841;SDS011;11587;47.064;15.444;2023-08-08T12:11:39;0.00;;;0.00;;
22841;SDS011;11587;47.064;15.444;2023-08-08T12:14:07;0.00;;;0.00;;
22841;SDS011;11587;47.064;15.444;2023-08-08T12:16:38;0.00;;;0.00;;
22841;SDS011;11587;47.064;15.444;2023-08-08T12:19:07;0.00;;;0.00;;
22841;SDS011;11587;47.064;15.444;2023-08-08T12:21:36;0.00;;;0.00;;
22841;SDS011;11587;47.064;15.444;2023-08-08T12:24:02;0.00;;;0.00;;
22841;SDS011;11587;47.064;15.444;2023-08-08T12:26:28;0.00;;;0.00;;
22841;SDS011;11587;47.064;15.444;2023-08-08T12:28:54;0.00;;;0.00;;
22841;SDS011;11587;47.064;15.444;2023-08-08T12:31:20;0.00;;;0.00;;
22841;SDS011;11587;47.064;15.444;2023-08-08T12:33:46;0.00;;;0.00;;
22841;SDS011;11587;47.064;15.444;2023-08-08T12:36:13;0.00;;;0.00;;
22841;SDS011;11587;47.064;15.444;2023-08-08T12:38:40;0.00;;;0.00;;
22841;SDS011;11587;47.064;15.444;2023-08-08T12:41:06;0.00;;;0.00;;
22841;SDS011;11587;47.064;15.444;2023-08-08T12:43:32;0.00;;;0.00;;
22841;SDS011;11587;47.064;15.444;2023-08-08T12:45:59;0.00;;;0.00;;
22841;SDS011;11587;47.064;15.444;2023-08-08T12:48:25;0.00;;;0.00;;
22841;SDS011;11587;47.064;15.444;2023-08-08T12:50:51;0.00;;;0.00;;
22841;SDS011;11587;47.064;15.444;2023-08-08T12:53:17;0.00;;;0.00;;
22841;SDS011;11587;47.064;15.444;2023-08-08T12:55:44;0.00;;;0.00;;
22841;SDS011;11587;47.064;15.444;2023-08-08T12:58:10;0.00;;;0.00;;
22841;SDS011;11587;47.064;15.444;2023-08-08T13:00:36;0.00;;;0.00;;
22841;SDS011;11587;47.064;15.444;2023-08-08T13:03:02;0.00;;;0.00;;
22841;SDS011;11587;47.064;15.444;2023-08-08T13:05:28;0.00;;;0.00;;
22841;SDS011;11587;47.064;15.444;2023-08-08T13:07:54;0.00;;;0.00;;
22841;SDS011;11587;47.064;15.444;2023-08-08T13:10:20;0.00;;;0.00;;
22841;SDS011;11587;47.064;15.444;2023-08-08T13:12:47;0.00;;;0.00;;
22841;SDS011;11587;47.064;15.444;2023-08-08T13:15:13;0.00;;;0.00;;
22841;SDS011;11587;47.064;15.444;2023-08-08T13:17:39;0.00;;;0.00;;
22841;SDS011;11587;47.064;15.444;2023-08-08T13:20:05;0.00;;;0.00;;
22841;SDS011;11587;47.064;15.444;2023-08-08T13:22:32;0.00;;;0.00;;
22841;SDS011;11587;47.064;15.444;2023-08-08T13:24:58;0.00;;;0.00;;
22841;SDS011;11587;47.064;15.444;2023-08-08T13:27:24;0.00;;;0.00;;
22841;SDS011;11587;47.064;15.444;2023-08-08T13:29:50;0.00;;;0.00;;
22841;SDS011;11587;47.064;15.444;2023-08-08T13:32:16;0.00;;;0.00;;
22841;SDS011;11587;47.064;15.444;2023-08-08T13:34:43;0.00;;;0.00;;
22841;SDS011;11587;47.064;15.444;2023-08-08T13:37:09;0.00;;;0.00;;
22841;SDS011;11587;47.064;15.444;2023-08-08T13:39:35;0.00;;;0.00;;
22841;SDS011;11587;47.064;15.444;2023-08-08T13:42:01;0.00;;;0.00;;
22841;SDS011;11587;47.064;15.444;2023-08-08T13:44:27;0.00;;;0.00;;
22841;SDS011;11587;47.064;15.444;2023-08-08T13:46:53;0.00;;;0.00;;
22841;SDS011;11587;47.064;15.444;2023-08-08T13:49:20;0.00;;;0.00;;
22841;SDS011;11587;47.064;15.444;2023-08-08T13:51:51;0.00;;;0.00;;
22841;SDS011;11587;47.064;15.444;2023-08-08T13:54:17;0.00;;;0.00;;
22841;SDS011;11587;47.064;15.444;2023-08-08T13:56:43;0.00;;;0.00;;
22841;SDS011;11587;47.064;15.444;2023-08-08T13:59:09;0.00;;;0.00;;
22841;SDS011;11587;47.064;15.444;2023-08-08T14:01:35;0.00;;;0.00;;
22841;SDS011;11587;47.064;15.444;2023-08-08T14:04:01;0.00;;;0.00;;
22841;SDS011;11587;47.064;15.444;2023-08-08T14:06:27;0.00;;;0.00;;
22841;SDS011;11587;47.064;15.444;2023-08-08T14:08:54;0.00;;;0.00;;
22841;SDS011;11587;47.064;15.444;2023-08-08T14:11:20;0.00;;;0.00;;
22841;SDS011;11587;47.064;15.444;2023-08-08T14:13:46;0.00;;;0.00;;
22841;SDS011;11587;47.064;15.444;2023-08-08T14:16:12;0.00;;;0.00;;
22841;SDS011;11587;47.064;15.444;2023-08-08T14:18:38;0.00;;;0.00;;
22841;SDS011;11587;47.064;15.444;2023-08-08T14:21:04;0.00;;;0.00;;
22841;SDS011;11587;47.064;15.444;2023-08-08T14:23:30;0.00;;;0.00;;
22841;SDS011;11587;47.064;15.444;2023-08-08T14:25:56;0.00;;;0.00;;
22841;SDS011;11587;47.064;15.444;2023-08-08T14:28:22;0.00;;;0.00;;
22841;SDS011;11587;47.064;15.444;2023-08-08T14:30:48;0.00;;;0.00;;
22841;SDS011;11587;47.064;15.444;2023-08-08T14:33:14;0.00;;;0.00;;